createdAt,value
2017-10-28T00:02:19.997Z,35.00
2017-10-28T00:04:47.498Z,35.20
2017-10-28T00:07:14.924Z,35.30
2017-10-28T00:09:42.352Z,35.50
2017-10-28T00:12:09.768Z,35.30
2017-10-28T00:14:37.515Z,35.50
2017-10-28T00:17:04.936Z,35.70
2017-10-28T00:19:32.364Z,35.90
2017-10-28T00:21:59.780Z,35.70
2017-10-28T00:24:27.208Z,35.40
2017-10-28T00:26:54.628Z,36.00
2017-10-28T00:29:22.061Z,35.70
2017-10-28T00:31:55.041Z,35.50
2017-10-28T00:34:28.185Z,35.60
2017-10-28T00:36:55.604Z,35.60
2017-10-28T00:39:23.057Z,35.50
2017-10-28T00:41:50.480Z,35.60
2017-10-28T00:44:17.907Z,35.70
2017-10-28T00:46:45.325Z,35.30
2017-10-28T00:49:12.747Z,35.70
2017-10-28T00:51:40.193Z,35.40
2017-10-28T00:54:08.401Z,35.70
2017-10-28T00:56:35.817Z,35.80
2017-10-28T00:59:03.246Z,36.20
2017-10-28T01:01:30.670Z,36.10
2017-10-28T01:03:58.148Z,36.10
2017-10-28T01:06:25.563Z,36.60
2017-10-28T01:08:52.984Z,36.50
2017-10-28T01:11:20.408Z,36.50
2017-10-28T01:13:47.832Z,36.50
2017-10-28T01:16:15.254Z,36.70
2017-10-28T01:18:42.684Z,36.60
2017-10-28T01:21:10.113Z,36.70
2017-10-28T01:23:37.524Z,36.90
2017-10-28T01:26:04.947Z,37.10
2017-10-28T01:28:32.365Z,37.40
2017-10-28T01:30:59.795Z,37.50
2017-10-28T01:33:27.976Z,37.80
2017-10-28T01:35:55.420Z,37.70
2017-10-28T01:38:22.836Z,37.80
2017-10-28T01:40:50.268Z,37.80
2017-10-28T01:43:17.697Z,37.80
2017-10-28T01:45:45.115Z,38.10
2017-10-28T01:48:12.540Z,38.10
2017-10-28T01:50:39.959Z,38.50
2017-10-28T01:53:07.380Z,38.30
2017-10-28T01:55:34.806Z,38.40
2017-10-28T01:58:02.241Z,38.70
2017-10-28T02:00:29.660Z,38.80
2017-10-28T02:02:57.104Z,38.90
2017-10-28T02:05:24.547Z,39.00
2017-10-28T02:07:51.943Z,39.10
2017-10-28T02:10:20.141Z,39.20
2017-10-28T02:12:47.564Z,39.10
2017-10-28T02:15:14.988Z,39.30
2017-10-28T02:17:42.417Z,39.40
2017-10-28T02:20:09.839Z,39.50
2017-10-28T02:22:38.092Z,39.40
2017-10-28T02:25:05.528Z,39.40
2017-10-28T02:27:32.948Z,39.30
2017-10-28T02:30:00.380Z,39.40
2017-10-28T02:32:27.800Z,39.30
2017-10-28T02:34:55.253Z,38.90
2017-10-28T02:37:22.690Z,39.50
2017-10-28T02:39:50.116Z,38.70
2017-10-28T02:42:17.544Z,38.90
2017-10-28T02:44:44.973Z,39.10
2017-10-28T02:47:12.396Z,39.00
2017-10-28T02:49:39.832Z,39.10
2017-10-28T02:52:07.264Z,39.70
2017-10-28T02:54:34.682Z,40.00
2017-10-28T02:57:02.097Z,40.10
2017-10-28T02:59:29.541Z,40.20
2017-10-28T03:01:56.964Z,40.50
2017-10-28T03:04:24.388Z,40.80
2017-10-28T03:06:51.839Z,40.70
2017-10-28T03:09:20.012Z,41.50
2017-10-28T03:11:47.449Z,41.50
2017-10-28T03:14:14.868Z,41.90
2017-10-28T03:16:42.313Z,42.30
2017-10-28T03:19:09.741Z,42.50
2017-10-28T03:21:37.172Z,42.70
2017-10-28T03:24:05.368Z,42.50
2017-10-28T03:26:32.796Z,42.40
2017-10-28T03:29:00.233Z,42.50
2017-10-28T03:31:27.655Z,42.30
2017-10-28T03:33:55.090Z,42.30
2017-10-28T03:36:22.526Z,42.20
2017-10-28T03:38:50.703Z,42.30
2017-10-28T03:41:18.131Z,42.10
2017-10-28T03:43:45.559Z,42.30
2017-10-28T03:46:13.008Z,42.10
2017-10-28T03:48:40.432Z,42.30
2017-10-28T03:51:07.874Z,42.20
2017-10-28T03:53:36.068Z,41.50
2017-10-28T03:56:03.495Z,41.40
2017-10-28T03:58:31.676Z,41.50
2017-10-28T04:00:59.297Z,41.50
2017-10-28T04:03:26.720Z,41.80
2017-10-28T04:05:54.148Z,41.70
2017-10-28T04:08:22.325Z,41.80
2017-10-28T04:10:49.824Z,41.70
2017-10-28T04:13:17.252Z,42.00
2017-10-28T04:15:44.680Z,42.20
2017-10-28T04:18:12.130Z,42.30
2017-10-28T04:20:39.541Z,42.30
2017-10-28T04:23:06.969Z,42.40
2017-10-28T04:25:34.397Z,42.40
2017-10-28T04:28:01.892Z,42.70
2017-10-28T04:30:29.320Z,42.70
2017-10-28T04:32:57.520Z,43.20
2017-10-28T04:35:24.949Z,43.10
2017-10-28T04:37:52.376Z,42.80
2017-10-28T04:40:19.800Z,43.00
2017-10-28T04:42:47.228Z,42.90
2017-10-28T04:45:14.652Z,42.80
2017-10-28T04:47:42.080Z,42.70
2017-10-28T04:50:09.506Z,42.60
2017-10-28T04:52:36.940Z,42.60
2017-10-28T04:55:04.364Z,42.50
2017-10-28T04:57:31.793Z,42.60
2017-10-28T04:59:59.218Z,42.40
2017-10-28T05:02:26.648Z,42.30
2017-10-28T05:04:54.089Z,42.00
2017-10-28T05:07:21.568Z,42.00
2017-10-28T05:09:49.004Z,41.90
2017-10-28T05:12:16.420Z,41.70
2017-10-28T05:14:43.860Z,41.90
2017-10-28T05:17:11.283Z,41.90
2017-10-28T05:19:38.720Z,42.10
2017-10-28T05:35:13.465Z,38.70
2017-10-28T05:37:40.885Z,39.70
2017-10-28T05:40:08.437Z,40.50
2017-10-28T05:42:35.860Z,41.20
2017-10-28T05:45:03.307Z,41.90
2017-10-28T05:47:30.724Z,42.40
2017-10-28T05:49:58.165Z,42.50
2017-10-28T05:52:25.579Z,42.70
2017-10-28T05:54:53.012Z,43.00
2017-10-28T05:57:20.515Z,43.20
2017-10-28T05:59:47.948Z,43.40
2017-10-28T06:02:15.372Z,43.20
2017-10-28T06:04:42.791Z,43.30
2017-10-28T06:07:10.212Z,43.10
2017-10-28T06:09:37.635Z,42.90
2017-10-28T06:12:05.057Z,42.70
2017-10-28T06:14:32.497Z,42.60
2017-10-28T06:16:59.923Z,42.70
2017-10-28T06:19:27.364Z,42.80
2017-10-28T06:21:54.780Z,42.50
2017-10-28T06:24:22.250Z,42.30
2017-10-28T06:26:49.640Z,41.90
2017-10-28T06:29:17.072Z,41.60
2017-10-28T06:31:44.500Z,41.50
2017-10-28T06:34:11.923Z,41.30
2017-10-28T06:36:39.361Z,41.00
2017-10-28T06:39:07.556Z,40.40
2017-10-28T06:41:34.990Z,40.30
2017-10-28T06:44:02.411Z,40.40
2017-10-28T06:46:29.851Z,40.00
2017-10-28T06:48:57.276Z,39.90
2017-10-28T06:51:24.707Z,40.00
2017-10-28T06:53:52.888Z,40.10
2017-10-28T06:56:20.312Z,39.50
2017-10-28T06:58:47.744Z,39.50
2017-10-28T07:01:15.188Z,39.10
2017-10-28T07:03:42.598Z,38.50
2017-10-28T07:06:10.024Z,38.40
2017-10-28T07:08:37.455Z,40.00
2017-10-28T07:11:04.885Z,38.40
2017-10-28T07:13:32.307Z,37.30
2017-10-28T07:15:59.749Z,37.50
2017-10-28T07:18:27.173Z,37.40
2017-10-28T07:20:54.592Z,37.50
2017-10-28T07:23:22.020Z,37.50
2017-10-28T07:25:49.456Z,37.60
2017-10-28T07:28:16.881Z,37.90
2017-10-28T07:30:45.078Z,38.10
2017-10-28T07:33:12.512Z,38.10
2017-10-28T07:35:39.969Z,37.70
2017-10-28T07:38:07.388Z,37.40
2017-10-28T07:40:34.804Z,37.40
2017-10-28T07:43:02.228Z,36.80
2017-10-28T07:45:29.719Z,37.10
2017-10-28T07:47:57.148Z,37.20
2017-10-28T07:50:24.573Z,37.30
2017-10-28T07:52:51.998Z,37.30
2017-10-28T07:55:19.416Z,37.50
2017-10-28T07:57:46.843Z,38.00
2017-10-28T08:00:14.268Z,37.20
2017-10-28T08:02:41.713Z,37.30
2017-10-28T08:05:09.124Z,36.80
2017-10-28T08:07:36.554Z,36.80
2017-10-28T08:10:03.969Z,36.80
2017-10-28T08:12:31.396Z,36.80
2017-10-28T08:14:59.579Z,36.00
2017-10-28T08:17:27.005Z,36.00
2017-10-28T08:19:54.428Z,35.90
2017-10-28T08:22:21.853Z,36.10
2017-10-28T08:24:49.272Z,34.40
2017-10-28T08:27:16.804Z,34.10
2017-10-28T08:29:44.223Z,33.60
2017-10-28T08:32:11.665Z,33.80
2017-10-28T08:34:39.845Z,33.60
2017-10-28T08:37:07.279Z,33.50
2017-10-28T08:39:34.696Z,33.40
2017-10-28T08:42:02.120Z,33.60
2017-10-28T08:44:29.556Z,33.70
2017-10-28T08:46:57.752Z,33.50
2017-10-28T08:49:25.188Z,33.40
2017-10-28T08:51:52.608Z,33.60
2017-10-28T08:54:20.044Z,33.80
2017-10-28T08:56:47.472Z,32.40
2017-10-28T08:59:14.899Z,32.50
2017-10-28T09:01:43.096Z,32.40
2017-10-28T09:04:10.533Z,32.40
2017-10-28T09:06:37.960Z,31.90
2017-10-28T09:09:05.396Z,31.90
2017-10-28T09:11:32.939Z,31.60
2017-10-28T09:14:00.381Z,31.20
2017-10-28T09:16:27.809Z,31.30
2017-10-28T09:18:55.240Z,30.90
2017-10-28T09:21:22.669Z,30.50
2017-10-28T09:23:50.152Z,30.10
2017-10-28T09:26:17.588Z,29.60
2017-10-28T09:28:45.054Z,30.60
2017-10-28T09:31:12.472Z,30.40
2017-10-28T09:33:39.887Z,30.40
2017-10-28T09:36:07.320Z,30.10
2017-10-28T09:38:34.739Z,29.30
2017-10-28T09:41:02.168Z,29.70
2017-10-28T09:43:29.597Z,28.90
2017-10-28T09:45:57.032Z,28.00
2017-10-28T09:48:24.461Z,27.90
2017-10-28T09:50:51.892Z,27.70
2017-10-28T09:53:19.324Z,28.00
2017-10-28T09:55:46.759Z,27.90
2017-10-28T09:58:14.179Z,27.50
2017-10-28T10:00:41.600Z,27.40
2017-10-28T10:03:09.221Z,27.30
2017-10-28T10:05:36.648Z,26.80
2017-10-28T10:08:04.085Z,27.10
2017-10-28T10:10:31.504Z,27.40
2017-10-28T10:12:58.949Z,28.00
2017-10-28T10:15:26.385Z,26.40
2017-10-28T10:17:53.814Z,26.50
2017-10-28T10:20:22.003Z,26.20
2017-10-28T10:22:49.432Z,26.10
2017-10-28T10:25:16.857Z,26.50
2017-10-28T10:27:44.289Z,25.80
2017-10-28T10:30:11.757Z,25.40
2017-10-28T10:32:39.192Z,25.20
2017-10-28T10:35:06.616Z,25.60
2017-10-28T10:37:34.836Z,24.90
2017-10-28T10:40:02.261Z,24.80
2017-10-28T10:42:29.677Z,24.70
2017-10-28T10:44:57.109Z,24.60
2017-10-28T10:47:24.568Z,24.90
2017-10-28T10:49:52.010Z,24.90
2017-10-28T10:52:19.428Z,24.80
2017-10-28T10:54:47.640Z,25.40
2017-10-28T10:57:15.061Z,25.40
2017-10-28T10:59:42.489Z,25.30
2017-10-28T11:02:10.849Z,24.60
2017-10-28T11:04:38.284Z,24.60
2017-10-28T11:07:05.715Z,24.60
2017-10-28T11:09:33.164Z,24.90
2017-10-28T11:12:01.371Z,24.70
2017-10-28T11:14:28.804Z,24.60
2017-10-28T11:16:56.228Z,24.70
2017-10-28T11:19:23.660Z,24.70
2017-10-28T11:21:51.084Z,24.10
2017-10-28T11:24:18.517Z,24.80
2017-10-28T11:26:46.707Z,24.80
2017-10-28T11:29:14.145Z,24.80
2017-10-28T11:31:41.573Z,24.80
2017-10-28T11:34:09.002Z,24.20
2017-10-28T11:36:36.433Z,24.10
2017-10-28T11:39:03.852Z,24.80
2017-10-28T11:41:32.052Z,24.90
2017-10-28T11:43:59.477Z,24.70
2017-10-28T11:46:26.907Z,24.30
2017-10-28T11:48:54.328Z,24.40
2017-10-28T11:51:21.781Z,24.50
2017-10-28T11:53:49.209Z,24.10
2017-10-28T11:56:16.634Z,23.90
2017-10-28T11:58:44.052Z,23.80
2017-10-28T12:01:11.551Z,24.40
2017-10-28T12:03:38.973Z,23.70
2017-10-28T12:06:06.416Z,23.60
2017-10-28T12:08:33.848Z,23.50
2017-10-28T12:11:02.036Z,23.50
2017-10-28T12:13:29.568Z,23.50
2017-10-28T12:15:56.997Z,23.40
2017-10-28T12:18:24.443Z,23.60
2017-10-28T12:20:51.889Z,23.30
2017-10-28T12:23:19.310Z,23.10
2017-10-28T12:25:47.503Z,23.00
2017-10-28T12:28:14.917Z,22.90
2017-10-28T12:30:42.352Z,23.20
2017-10-28T12:33:09.775Z,22.70
2017-10-28T12:35:37.200Z,23.00
2017-10-28T12:38:05.395Z,22.80
2017-10-28T12:40:32.842Z,22.90
2017-10-28T12:43:00.287Z,22.20
2017-10-28T12:45:27.711Z,22.70
2017-10-28T12:47:55.141Z,22.60
2017-10-28T12:50:22.635Z,22.60
2017-10-28T12:52:50.157Z,22.30
2017-10-28T12:55:17.613Z,22.40
2017-10-28T12:57:45.030Z,21.90
2017-10-28T13:00:12.452Z,21.80
2017-10-28T13:02:39.884Z,22.60
2017-10-28T13:05:07.433Z,22.40
2017-10-28T13:07:34.869Z,21.50
2017-10-28T13:10:02.292Z,21.20
2017-10-28T13:12:30.610Z,21.30
2017-10-28T13:14:58.117Z,21.20
2017-10-28T13:17:26.319Z,22.00
2017-10-28T13:19:53.736Z,22.00
2017-10-28T13:22:21.185Z,22.10
2017-10-28T13:24:48.641Z,21.40
2017-10-28T13:27:16.036Z,21.70
2017-10-28T13:29:43.468Z,21.20
2017-10-28T13:32:10.888Z,21.30
2017-10-28T13:34:38.316Z,21.20
2017-10-28T13:37:05.740Z,21.50
2017-10-28T13:39:33.168Z,21.20
2017-10-28T13:42:00.587Z,21.60
2017-10-28T13:44:28.184Z,21.60
2017-10-28T13:46:55.612Z,21.50
2017-10-28T13:49:23.049Z,21.50
2017-10-28T13:51:50.473Z,21.60
2017-10-28T13:54:17.909Z,21.20
2017-10-28T13:56:45.557Z,21.30
2017-10-28T13:59:13.017Z,21.40
2017-10-28T14:01:40.435Z,21.50
2017-10-28T14:04:07.856Z,21.80
2017-10-28T14:06:35.283Z,21.60
2017-10-28T14:09:02.716Z,21.60
2017-10-28T14:11:30.145Z,21.40
2017-10-28T14:13:58.324Z,21.90
2017-10-28T14:16:25.761Z,21.80
2017-10-28T14:18:53.181Z,22.20
2017-10-28T14:21:20.612Z,22.20
2017-10-28T14:23:48.032Z,22.00
2017-10-28T14:26:16.252Z,22.00
2017-10-28T14:28:43.676Z,22.00
2017-10-28T14:31:11.096Z,21.90
2017-10-28T14:33:38.539Z,21.90
2017-10-28T14:36:05.976Z,21.70
2017-10-28T14:38:33.410Z,21.70
2017-10-28T14:41:00.832Z,21.50
2017-10-28T14:43:28.277Z,21.40
2017-10-28T14:45:55.705Z,21.30
2017-10-28T14:48:23.135Z,21.60
2017-10-28T14:50:50.559Z,21.70
2017-10-28T14:53:18.012Z,21.90
2017-10-28T14:55:45.436Z,21.70
2017-10-28T14:58:12.851Z,21.90
2017-10-28T15:00:40.284Z,22.10
2017-10-28T15:03:07.713Z,22.00
2017-10-28T15:05:35.152Z,22.00
2017-10-28T15:08:02.573Z,22.10
2017-10-28T15:10:30.009Z,22.10
2017-10-28T15:12:58.196Z,22.10
2017-10-28T15:15:25.628Z,22.10
2017-10-28T15:17:53.048Z,21.70
2017-10-28T15:20:20.498Z,21.80
2017-10-28T15:22:47.912Z,22.10
2017-10-28T15:25:16.112Z,22.40
2017-10-28T15:27:43.536Z,22.40
2017-10-28T15:30:10.989Z,22.40
2017-10-28T15:32:38.412Z,22.90
2017-10-28T15:35:05.828Z,22.50
2017-10-28T15:37:33.257Z,22.10
2017-10-28T15:40:01.444Z,22.00
2017-10-28T15:42:28.875Z,21.90
2017-10-28T15:44:56.296Z,22.30
2017-10-28T15:47:23.845Z,22.40
2017-10-28T15:49:51.268Z,22.70
2017-10-28T15:52:18.701Z,22.70
2017-10-28T15:54:46.124Z,22.80
2017-10-28T15:57:13.560Z,22.80
2017-10-28T15:59:40.981Z,23.00
2017-10-28T16:02:09.187Z,23.10
2017-10-28T16:04:36.608Z,23.00
2017-10-28T16:07:04.032Z,23.20
2017-10-28T16:09:31.464Z,23.20
2017-10-28T16:11:58.884Z,23.10
2017-10-28T16:14:27.089Z,23.10
2017-10-28T16:16:54.507Z,23.10
2017-10-28T16:19:21.944Z,23.40
2017-10-28T16:21:50.123Z,23.20
2017-10-28T16:24:17.552Z,23.80
2017-10-28T16:26:44.968Z,23.50
2017-10-28T16:29:12.425Z,23.40
2017-10-28T16:31:39.851Z,23.80
2017-10-28T16:34:08.265Z,23.70
2017-10-28T16:36:35.680Z,23.70
2017-10-28T16:39:03.109Z,23.80
2017-10-28T16:41:30.560Z,23.90
2017-10-28T16:43:58.005Z,24.00
2017-10-28T16:46:25.436Z,24.20
2017-10-28T16:48:52.899Z,24.20
2017-10-28T16:51:20.336Z,24.20
2017-10-28T16:53:48.532Z,24.20
2017-10-28T16:56:15.965Z,24.20
2017-10-28T16:58:43.388Z,24.80
2017-10-28T17:01:10.834Z,24.60
2017-10-28T17:03:38.243Z,24.70
2017-10-28T17:06:05.696Z,24.70
2017-10-28T17:08:33.224Z,24.70
2017-10-28T17:11:00.644Z,24.70
2017-10-28T17:13:28.107Z,24.80
2017-10-28T17:15:55.528Z,25.00
2017-10-28T17:18:22.965Z,24.80
2017-10-28T17:20:51.147Z,25.00
2017-10-28T17:23:18.656Z,25.00
2017-10-28T17:25:46.076Z,24.90
2017-10-28T17:28:13.513Z,24.80
2017-10-28T17:30:41.003Z,25.10
2017-10-28T17:33:08.440Z,25.10
2017-10-28T17:35:35.856Z,25.20
2017-10-28T17:38:04.064Z,25.10
2017-10-28T17:40:31.483Z,25.10
2017-10-28T17:42:58.933Z,25.10
2017-10-28T17:45:26.376Z,25.10
2017-10-28T17:47:55.441Z,25.30
2017-10-28T17:50:22.851Z,25.40
2017-10-28T17:52:50.272Z,25.50
2017-10-28T17:55:17.746Z,25.60
2017-10-28T17:57:45.136Z,25.60
2017-10-28T18:00:12.573Z,25.80
2017-10-28T18:02:40.005Z,25.90
2017-10-28T18:05:07.428Z,25.90
2017-10-28T18:07:34.848Z,25.90
2017-10-28T18:10:03.052Z,26.10
2017-10-28T18:12:30.468Z,26.10
2017-10-28T18:14:57.903Z,26.10
2017-10-28T18:17:25.333Z,26.30
2017-10-28T18:19:52.768Z,26.50
2017-10-28T18:22:20.196Z,26.80
2017-10-28T18:24:47.624Z,26.90
2017-10-28T18:27:15.058Z,27.20
2017-10-28T18:29:42.600Z,26.70
2017-10-28T18:32:10.020Z,26.80
2017-10-28T18:34:38.235Z,27.00
2017-10-28T18:37:05.661Z,26.90
2017-10-28T18:39:33.080Z,27.20
2017-10-28T18:42:00.516Z,27.30
2017-10-28T18:44:27.940Z,27.20
2017-10-28T18:46:55.381Z,27.20
2017-10-28T18:49:23.565Z,27.40
2017-10-28T18:51:51.001Z,27.40
2017-10-28T18:54:18.416Z,27.50
2017-10-28T18:56:45.860Z,27.70
2017-10-28T18:59:13.289Z,27.50
2017-10-28T19:01:41.480Z,27.80
2017-10-28T19:04:08.978Z,27.80
2017-10-28T19:06:36.405Z,28.00
2017-10-28T19:09:03.832Z,28.10
2017-10-28T19:11:31.279Z,28.20
2017-10-28T19:13:58.708Z,28.30
2017-10-28T19:16:26.147Z,28.20
2017-10-28T19:18:53.569Z,28.40
2017-10-28T19:21:20.992Z,28.70
2017-10-28T19:23:49.192Z,29.20
2017-10-28T19:26:16.608Z,29.00
2017-10-28T19:28:44.048Z,29.00
2017-10-28T19:31:11.456Z,29.40
2017-10-28T19:33:38.897Z,29.40
2017-10-28T19:36:07.087Z,29.80
2017-10-28T19:38:34.544Z,29.80
2017-10-28T19:41:01.972Z,30.00
2017-10-28T19:43:29.392Z,30.10
2017-10-28T19:45:56.823Z,30.10
2017-10-28T19:48:24.252Z,30.50
2017-10-28T19:50:52.452Z,30.90
2017-10-28T19:53:19.895Z,30.80
2017-10-28T19:55:47.332Z,30.90
2017-10-28T19:58:14.752Z,31.00
2017-10-28T20:00:42.192Z,31.20
2017-10-28T20:03:09.616Z,31.30
2017-10-28T20:05:37.044Z,31.40
2017-10-28T20:08:05.241Z,31.90
2017-10-28T20:10:32.668Z,31.70
2017-10-28T20:13:00.093Z,31.90
2017-10-28T20:15:27.645Z,32.20
2017-10-28T20:17:55.081Z,32.20
2017-10-28T20:20:22.491Z,32.50
2017-10-28T20:22:49.924Z,32.70
2017-10-28T20:25:17.350Z,32.90
2017-10-28T20:27:44.780Z,33.20
2017-10-28T20:30:12.977Z,33.20
2017-10-28T20:32:40.404Z,33.20
2017-10-28T20:35:07.833Z,33.60
2017-10-28T20:37:35.263Z,33.90
2017-10-28T20:40:02.688Z,34.10
2017-10-28T20:42:30.121Z,34.20
2017-10-28T20:44:57.543Z,34.10
2017-10-28T20:47:24.964Z,34.20
2017-10-28T20:49:52.395Z,34.30
2017-10-28T20:52:19.811Z,34.70
2017-10-28T20:54:47.246Z,34.80
2017-10-28T20:57:14.659Z,34.90
2017-10-28T20:59:42.096Z,35.10
2017-10-28T21:02:10.279Z,35.60
2017-10-28T21:04:37.718Z,35.60
2017-10-28T21:07:05.137Z,35.70
2017-10-28T21:09:32.561Z,35.90
2017-10-28T21:11:59.992Z,35.90
2017-10-28T21:14:27.421Z,36.10
2017-10-28T21:16:54.851Z,36.10
2017-10-28T21:19:22.280Z,36.10
2017-10-28T21:21:50.490Z,36.30
2017-10-28T21:24:17.908Z,36.30
2017-10-28T21:26:45.346Z,36.50
2017-10-28T21:29:12.764Z,36.50
2017-10-28T21:31:40.200Z,36.60
2017-10-28T21:34:07.616Z,36.60
2017-10-28T21:36:35.056Z,36.60
2017-10-28T21:39:02.459Z,36.60
2017-10-28T21:41:29.883Z,36.50
2017-10-28T21:43:57.315Z,36.70
2017-10-28T21:46:24.740Z,36.90
2017-10-28T21:48:52.172Z,37.00
2017-10-28T21:51:19.592Z,37.70
2017-10-28T21:53:47.033Z,37.10
2017-10-28T21:56:14.451Z,37.50
2017-10-28T21:58:41.889Z,37.50
2017-10-28T22:01:10.113Z,37.50
2017-10-28T22:03:37.535Z,37.50
2017-10-28T22:06:04.981Z,37.40
2017-10-28T22:08:32.396Z,37.40
2017-10-28T22:10:59.844Z,37.50
2017-10-28T22:13:27.269Z,37.80
2017-10-28T22:15:54.760Z,37.90
2017-10-28T22:18:22.181Z,38.30
2017-10-28T22:20:49.632Z,38.50
2017-10-28T22:23:17.052Z,38.60
2017-10-28T22:25:44.484Z,38.60
2017-10-28T22:28:11.905Z,39.50
2017-10-28T22:30:39.336Z,39.00
2017-10-28T22:33:06.761Z,39.20
2017-10-28T22:35:34.213Z,39.10
2017-10-28T22:38:01.636Z,39.50
2017-10-28T22:40:29.061Z,39.70
2017-10-28T22:42:56.489Z,39.90
2017-10-28T22:45:23.912Z,40.00
2017-10-28T22:47:51.349Z,40.10
2017-10-28T22:50:18.772Z,40.00
2017-10-28T22:52:46.970Z,40.10
2017-10-28T22:55:14.392Z,40.00
2017-10-28T22:57:41.815Z,40.20
2017-10-28T23:00:09.235Z,40.30
2017-10-28T23:02:36.668Z,40.30
2017-10-28T23:05:04.858Z,41.10
2017-10-28T23:07:32.305Z,40.30
2017-10-28T23:09:59.729Z,40.30
2017-10-28T23:12:27.157Z,40.40
2017-10-28T23:14:54.583Z,40.50
2017-10-28T23:17:22.010Z,40.70
2017-10-28T23:19:49.522Z,40.70
2017-10-28T23:22:16.992Z,40.60
2017-10-28T23:24:44.419Z,40.60
2017-10-28T23:27:11.840Z,40.60
2017-10-28T23:29:40.049Z,40.70
2017-10-28T23:32:07.481Z,40.70
2017-10-28T23:34:34.908Z,40.50
2017-10-28T23:37:02.337Z,40.60
2017-10-28T23:39:29.800Z,40.40
2017-10-28T23:41:57.208Z,40.50
2017-10-28T23:44:25.414Z,40.50
2017-10-28T23:46:52.881Z,40.40
2017-10-28T23:49:20.305Z,40.40
2017-10-28T23:51:47.741Z,40.40
2017-10-28T23:54:15.160Z,40.30
2017-10-28T23:56:42.597Z,40.30
2017-10-28T23:59:10.011Z,40.20
